sensor_id;sensor_type;location;lat;lon;timestamp;temperature;humidity
84090;SHT35;74178;52.136;5.424;2024-02-15T00:00:31;12.40;92.90
84090;SHT35;74178;52.136;5.424;2024-02-15T00:03:01;12.40;92.70
84090;SHT35;74178;52.136;5.424;2024-02-15T00:05:33;12.40;92.51
84090;SHT35;74178;52.136;5.424;2024-02-15T00:08:06;12.40;92.69
84090;SHT35;74178;52.136;5.424;2024-02-15T00:10:38;12.41;92.59
84090;SHT35;74178;52.136;5.424;2024-02-15T00:13:09;12.41;92.34
84090;SHT35;74178;52.136;5.424;2024-02-15T00:15:45;12.40;92.55
84090;SHT35;74178;52.136;5.424;2024-02-15T00:18:19;12.40;92.30
84090;SHT35;74178;52.136;5.424;2024-02-15T00:20:49;12.39;92.39
84090;SHT35;74178;52.136;5.424;2024-02-15T00:23:19;12.40;92.34
84090;SHT35;74178;52.136;5.424;2024-02-15T00:25:50;12.40;91.95
84090;SHT35;74178;52.136;5.424;2024-02-15T00:28:20;12.39;92.13
84090;SHT35;74178;52.136;5.424;2024-02-15T00:30:53;12.38;92.21
84090;SHT35;74178;52.136;5.424;2024-02-15T00:33:23;12.37;92.18
84090;SHT35;74178;52.136;5.424;2024-02-15T00:35:54;12.36;92.39
84090;SHT35;74178;52.136;5.424;2024-02-15T00:38:25;12.37;92.61
84090;SHT35;74178;52.136;5.424;2024-02-15T00:40:55;12.37;92.49
84090;SHT35;74178;52.136;5.424;2024-02-15T00:43:27;12.39;92.76
84090;SHT35;74178;52.136;5.424;2024-02-15T00:45:57;12.39;92.53
84090;SHT35;74178;52.136;5.424;2024-02-15T00:48:28;12.39;92.24
84090;SHT35;74178;52.136;5.424;2024-02-15T00:50:59;12.40;92.33
84090;SHT35;74178;52.136;5.424;2024-02-15T00:53:29;12.40;92.18
84090;SHT35;74178;52.136;5.424;2024-02-15T00:56:00;12.41;92.41
84090;SHT35;74178;52.136;5.424;2024-02-15T00:58:30;12.42;92.19
84090;SHT35;74178;52.136;5.424;2024-02-15T01:01:00;12.43;92.25
84090;SHT35;74178;52.136;5.424;2024-02-15T01:03:31;12.43;92.19
84090;SHT35;74178;52.136;5.424;2024-02-15T01:06:01;12.44;92.25
84090;SHT35;74178;52.136;5.424;2024-02-15T01:08:32;12.43;92.35
84090;SHT35;74178;52.136;5.424;2024-02-15T01:11:02;12.44;91.86
84090;SHT35;74178;52.136;5.424;2024-02-15T01:13:33;12.45;92.18
84090;SHT35;74178;52.136;5.424;2024-02-15T01:16:04;12.46;92.09
84090;SHT35;74178;52.136;5.424;2024-02-15T01:18:34;12.47;92.11
84090;SHT35;74178;52.136;5.424;2024-02-15T01:21:05;12.47;91.98
84090;SHT35;74178;52.136;5.424;2024-02-15T01:23:35;12.47;92.08
84090;SHT35;74178;52.136;5.424;2024-02-15T01:26:06;12.47;91.82
84090;SHT35;74178;52.136;5.424;2024-02-15T01:28:37;12.47;91.96
84090;SHT35;74178;52.136;5.424;2024-02-15T01:31:07;12.46;91.98
84090;SHT35;74178;52.136;5.424;2024-02-15T01:33:39;12.45;91.94
84090;SHT35;74178;52.136;5.424;2024-02-15T01:36:17;12.45;91.95
84090;SHT35;74178;52.136;5.424;2024-02-15T01:38:48;12.44;92.19
84090;SHT35;74178;52.136;5.424;2024-02-15T01:41:18;12.45;92.27
84090;SHT35;74178;52.136;5.424;2024-02-15T01:43:48;12.46;92.12
84090;SHT35;74178;52.136;5.424;2024-02-15T01:46:21;12.46;91.98
84090;SHT35;74178;52.136;5.424;2024-02-15T01:48:51;12.44;91.99
84090;SHT35;74178;52.136;5.424;2024-02-15T01:51:23;12.43;92.00
84090;SHT35;74178;52.136;5.424;2024-02-15T01:53:56;12.41;92.18
84090;SHT35;74178;52.136;5.424;2024-02-15T01:56:28;12.40;92.32
84090;SHT35;74178;52.136;5.424;2024-02-15T01:59:00;12.40;92.41
84090;SHT35;74178;52.136;5.424;2024-02-15T02:01:31;12.40;92.34
84090;SHT35;74178;52.136;5.424;2024-02-15T02:04:02;12.40;92.24
84090;SHT35;74178;52.136;5.424;2024-02-15T02:06:32;12.40;92.30
84090;SHT35;74178;52.136;5.424;2024-02-15T02:09:03;12.41;92.03
84090;SHT35;74178;52.136;5.424;2024-02-15T02:11:34;12.40;92.12
84090;SHT35;74178;52.136;5.424;2024-02-15T02:14:04;12.40;92.22
84090;SHT35;74178;52.136;5.424;2024-02-15T02:16:35;12.40;92.51
84090;SHT35;74178;52.136;5.424;2024-02-15T02:19:06;12.40;92.42
84090;SHT35;74178;52.136;5.424;2024-02-15T02:21:39;12.40;92.34
84090;SHT35;74178;52.136;5.424;2024-02-15T02:24:15;12.41;92.25
84090;SHT35;74178;52.136;5.424;2024-02-15T02:26:48;12.42;92.41
84090;SHT35;74178;52.136;5.424;2024-02-15T02:29:23;12.43;92.20
84090;SHT35;74178;52.136;5.424;2024-02-15T02:31:53;12.42;92.16
84090;SHT35;74178;52.136;5.424;2024-02-15T02:34:24;12.43;91.77
84090;SHT35;74178;52.136;5.424;2024-02-15T02:36:54;12.42;91.70
84090;SHT35;74178;52.136;5.424;2024-02-15T02:39:25;12.41;91.64
84090;SHT35;74178;52.136;5.424;2024-02-15T02:42:00;12.39;91.83
84090;SHT35;74178;52.136;5.424;2024-02-15T02:44:31;12.39;91.81
84090;SHT35;74178;52.136;5.424;2024-02-15T02:47:01;12.38;91.41
84090;SHT35;74178;52.136;5.424;2024-02-15T02:49:31;12.37;91.43
84090;SHT35;74178;52.136;5.424;2024-02-15T02:52:02;12.35;91.77
84090;SHT35;74178;52.136;5.424;2024-02-15T02:54:32;12.36;92.13
84090;SHT35;74178;52.136;5.424;2024-02-15T02:57:03;12.36;92.15
84090;SHT35;74178;52.136;5.424;2024-02-15T02:59:35;12.35;91.87
84090;SHT35;74178;52.136;5.424;2024-02-15T03:02:09;12.36;91.76
84090;SHT35;74178;52.136;5.424;2024-02-15T03:04:39;12.35;92.18
84090;SHT35;74178;52.136;5.424;2024-02-15T03:07:09;12.36;91.78
84090;SHT35;74178;52.136;5.424;2024-02-15T03:09:46;12.36;91.70
84090;SHT35;74178;52.136;5.424;2024-02-15T03:12:17;12.36;91.76
84090;SHT35;74178;52.136;5.424;2024-02-15T03:14:47;12.35;91.78
84090;SHT35;74178;52.136;5.424;2024-02-15T03:17:18;12.35;91.85
84090;SHT35;74178;52.136;5.424;2024-02-15T03:19:48;12.35;92.07
84090;SHT35;74178;52.136;5.424;2024-02-15T03:22:18;12.35;91.83
84090;SHT35;74178;52.136;5.424;2024-02-15T03:24:49;12.35;91.76
84090;SHT35;74178;52.136;5.424;2024-02-15T03:27:19;12.34;91.82
84090;SHT35;74178;52.136;5.424;2024-02-15T03:29:52;12.34;91.83
84090;SHT35;74178;52.136;5.424;2024-02-15T03:32:25;12.33;91.71
84090;SHT35;74178;52.136;5.424;2024-02-15T03:34:56;12.32;91.43
84090;SHT35;74178;52.136;5.424;2024-02-15T03:37:26;12.31;91.50
84090;SHT35;74178;52.136;5.424;2024-02-15T03:39:57;12.30;91.40
84090;SHT35;74178;52.136;5.424;2024-02-15T03:42:27;12.28;91.59
84090;SHT35;74178;52.136;5.424;2024-02-15T03:44:58;12.27;91.48
84090;SHT35;74178;52.136;5.424;2024-02-15T03:47:29;12.26;91.21
84090;SHT35;74178;52.136;5.424;2024-02-15T03:50:03;12.24;91.44
84090;SHT35;74178;52.136;5.424;2024-02-15T03:52:34;12.22;91.63
84090;SHT35;74178;52.136;5.424;2024-02-15T03:55:05;12.21;91.68
84090;SHT35;74178;52.136;5.424;2024-02-15T03:57:39;12.21;91.90
84090;SHT35;74178;52.136;5.424;2024-02-15T04:00:12;12.21;91.49
84090;SHT35;74178;52.136;5.424;2024-02-15T04:02:54;12.21;91.60
84090;SHT35;74178;52.136;5.424;2024-02-15T04:05:25;12.21;91.55
84090;SHT35;74178;52.136;5.424;2024-02-15T04:07:56;12.21;91.54
84090;SHT35;74178;52.136;5.424;2024-02-15T04:10:28;12.21;91.43
84090;SHT35;74178;52.136;5.424;2024-02-15T04:12:58;12.21;91.93
84090;SHT35;74178;52.136;5.424;2024-02-15T04:15:28;12.22;91.86
84090;SHT35;74178;52.136;5.424;2024-02-15T04:17:58;12.23;91.48
84090;SHT35;74178;52.136;5.424;2024-02-15T04:20:29;12.23;91.50
84090;SHT35;74178;52.136;5.424;2024-02-15T04:23:00;12.23;91.75
84090;SHT35;74178;52.136;5.424;2024-02-15T04:25:30;12.23;91.68
84090;SHT35;74178;52.136;5.424;2024-02-15T04:28:02;12.22;91.87
84090;SHT35;74178;52.136;5.424;2024-02-15T04:30:33;12.22;91.69
84090;SHT35;74178;52.136;5.424;2024-02-15T04:33:06;12.21;91.98
84090;SHT35;74178;52.136;5.424;2024-02-15T04:35:37;12.20;92.15
84090;SHT35;74178;52.136;5.424;2024-02-15T04:38:08;12.19;92.39
84090;SHT35;74178;52.136;5.424;2024-02-15T04:40:38;12.20;92.23
84090;SHT35;74178;52.136;5.424;2024-02-15T04:43:09;12.19;92.27
84090;SHT35;74178;52.136;5.424;2024-02-15T04:45:39;12.19;92.43
84090;SHT35;74178;52.136;5.424;2024-02-15T04:48:10;12.20;92.67
84090;SHT35;74178;52.136;5.424;2024-02-15T04:50:43;12.20;92.47
84090;SHT35;74178;52.136;5.424;2024-02-15T04:53:14;12.21;92.51
84090;SHT35;74178;52.136;5.424;2024-02-15T04:55:44;12.20;92.51
84090;SHT35;74178;52.136;5.424;2024-02-15T04:58:14;12.19;92.89
84090;SHT35;74178;52.136;5.424;2024-02-15T05:00:45;12.20;92.65
84090;SHT35;74178;52.136;5.424;2024-02-15T05:03:17;12.19;92.65
84090;SHT35;74178;52.136;5.424;2024-02-15T05:05:48;12.19;92.74
84090;SHT35;74178;52.136;5.424;2024-02-15T05:08:18;12.21;92.74
84090;SHT35;74178;52.136;5.424;2024-02-15T05:10:49;12.22;92.71
84090;SHT35;74178;52.136;5.424;2024-02-15T05:13:25;12.22;92.61
84090;SHT35;74178;52.136;5.424;2024-02-15T05:15:56;12.22;92.68
84090;SHT35;74178;52.136;5.424;2024-02-15T05:18:26;12.21;92.98
84090;SHT35;74178;52.136;5.424;2024-02-15T05:20:58;12.22;92.73
84090;SHT35;74178;52.136;5.424;2024-02-15T05:23:30;12.22;92.76
84090;SHT35;74178;52.136;5.424;2024-02-15T05:26:00;12.21;92.92
84090;SHT35;74178;52.136;5.424;2024-02-15T05:28:32;12.21;93.13
84090;SHT35;74178;52.136;5.424;2024-02-15T05:31:13;12.22;93.03
84090;SHT35;74178;52.136;5.424;2024-02-15T05:33:55;12.22;92.94
84090;SHT35;74178;52.136;5.424;2024-02-15T05:36:27;12.23;93.17
84090;SHT35;74178;52.136;5.424;2024-02-15T05:38:59;12.25;93.14
84090;SHT35;74178;52.136;5.424;2024-02-15T05:41:32;12.24;93.24
84090;SHT35;74178;52.136;5.424;2024-02-15T05:44:03;12.23;93.32
84090;SHT35;74178;52.136;5.424;2024-02-15T05:46:35;12.22;93.24
84090;SHT35;74178;52.136;5.424;2024-02-15T05:49:08;12.21;93.48
84090;SHT35;74178;52.136;5.424;2024-02-15T05:51:44;12.21;93.35
84090;SHT35;74178;52.136;5.424;2024-02-15T05:54:16;12.21;93.50
84090;SHT35;74178;52.136;5.424;2024-02-15T05:56:47;12.20;93.51
84090;SHT35;74178;52.136;5.424;2024-02-15T05:59:21;12.20;93.53
84090;SHT35;74178;52.136;5.424;2024-02-15T06:01:52;12.19;93.57
84090;SHT35;74178;52.136;5.424;2024-02-15T06:04:22;12.19;93.66
84090;SHT35;74178;52.136;5.424;2024-02-15T06:06:53;12.18;93.63
84090;SHT35;74178;52.136;5.424;2024-02-15T06:09:27;12.19;93.79
84090;SHT35;74178;52.136;5.424;2024-02-15T06:12:01;12.20;93.76
84090;SHT35;74178;52.136;5.424;2024-02-15T06:14:32;12.21;93.58
84090;SHT35;74178;52.136;5.424;2024-02-15T06:17:02;12.22;93.51
84090;SHT35;74178;52.136;5.424;2024-02-15T06:19:33;12.22;93.46
84090;SHT35;74178;52.136;5.424;2024-02-15T06:22:03;12.23;93.62
84090;SHT35;74178;52.136;5.424;2024-02-15T06:24:34;12.25;93.58
84090;SHT35;74178;52.136;5.424;2024-02-15T06:27:04;12.25;93.42
84090;SHT35;74178;52.136;5.424;2024-02-15T06:29:35;12.25;93.40
84090;SHT35;74178;52.136;5.424;2024-02-15T06:32:23;12.25;93.60
84090;SHT35;74178;52.136;5.424;2024-02-15T06:35:15;12.26;93.56
84090;SHT35;74178;52.136;5.424;2024-02-15T06:38:04;12.27;93.50
84090;SHT35;74178;52.136;5.424;2024-02-15T06:40:54;12.28;93.44
84090;SHT35;74178;52.136;5.424;2024-02-15T06:43:24;12.28;93.17
84090;SHT35;74178;52.136;5.424;2024-02-15T06:45:54;12.28;93.22
84090;SHT35;74178;52.136;5.424;2024-02-15T06:48:24;12.28;93.43
84090;SHT35;74178;52.136;5.424;2024-02-15T06:50:55;12.28;93.50
84090;SHT35;74178;52.136;5.424;2024-02-15T06:53:26;12.29;93.44
84090;SHT35;74178;52.136;5.424;2024-02-15T06:55:56;12.30;93.62
84090;SHT35;74178;52.136;5.424;2024-02-15T06:58:26;12.31;93.57
84090;SHT35;74178;52.136;5.424;2024-02-15T07:00:57;12.32;93.34
84090;SHT35;74178;52.136;5.424;2024-02-15T07:03:28;12.32;93.35
84090;SHT35;74178;52.136;5.424;2024-02-15T07:06:03;12.32;93.33
84090;SHT35;74178;52.136;5.424;2024-02-15T07:08:33;12.32;93.45
84090;SHT35;74178;52.136;5.424;2024-02-15T07:11:05;12.34;93.21
84090;SHT35;74178;52.136;5.424;2024-02-15T07:13:38;12.34;93.39
84090;SHT35;74178;52.136;5.424;2024-02-15T07:16:09;12.35;93.53
84090;SHT35;74178;52.136;5.424;2024-02-15T07:18:40;12.36;93.40
84090;SHT35;74178;52.136;5.424;2024-02-15T07:21:10;12.38;93.44
84090;SHT35;74178;52.136;5.424;2024-02-15T07:23:43;12.39;93.29
84090;SHT35;74178;52.136;5.424;2024-02-15T07:26:13;12.42;93.22
84090;SHT35;74178;52.136;5.424;2024-02-15T07:28:45;12.43;93.34
84090;SHT35;74178;52.136;5.424;2024-02-15T07:31:17;12.43;93.01
84090;SHT35;74178;52.136;5.424;2024-02-15T07:33:49;12.43;93.22
84090;SHT35;74178;52.136;5.424;2024-02-15T07:36:21;12.44;93.31
84090;SHT35;74178;52.136;5.424;2024-02-15T07:38:52;12.44;93.14
84090;SHT35;74178;52.136;5.424;2024-02-15T07:41:24;12.45;93.34
84090;SHT35;74178;52.136;5.424;2024-02-15T07:43:54;12.44;93.33
84090;SHT35;74178;52.136;5.424;2024-02-15T07:46:26;12.43;93.25
84090;SHT35;74178;52.136;5.424;2024-02-15T07:48:58;12.41;93.70
84090;SHT35;74178;52.136;5.424;2024-02-15T07:51:28;12.40;93.87
84090;SHT35;74178;52.136;5.424;2024-02-15T07:53:59;12.39;93.85
84090;SHT35;74178;52.136;5.424;2024-02-15T07:56:30;12.38;93.93
84090;SHT35;74178;52.136;5.424;2024-02-15T07:59:00;12.37;94.04
84090;SHT35;74178;52.136;5.424;2024-02-15T08:01:32;12.39;94.06
84090;SHT35;74178;52.136;5.424;2024-02-15T08:04:02;12.38;94.18
84090;SHT35;74178;52.136;5.424;2024-02-15T08:06:32;12.38;93.95
84090;SHT35;74178;52.136;5.424;2024-02-15T08:09:05;12.39;93.79
84090;SHT35;74178;52.136;5.424;2024-02-15T08:11:36;12.38;93.83
84090;SHT35;74178;52.136;5.424;2024-02-15T08:14:08;12.38;93.63
84090;SHT35;74178;52.136;5.424;2024-02-15T08:16:42;12.36;93.70
84090;SHT35;74178;52.136;5.424;2024-02-15T08:19:13;12.34;93.60
84090;SHT35;74178;52.136;5.424;2024-02-15T08:21:44;12.32;94.12
84090;SHT35;74178;52.136;5.424;2024-02-15T08:24:20;12.32;94.30
84090;SHT35;74178;52.136;5.424;2024-02-15T08:26:50;12.32;94.21
84090;SHT35;74178;52.136;5.424;2024-02-15T08:29:21;12.31;94.23
84090;SHT35;74178;52.136;5.424;2024-02-15T08:31:51;12.32;94.37
84090;SHT35;74178;52.136;5.424;2024-02-15T08:34:22;12.32;94.69
84090;SHT35;74178;52.136;5.424;2024-02-15T08:36:52;12.34;94.27
84090;SHT35;74178;52.136;5.424;2024-02-15T08:39:22;12.34;94.35
84090;SHT35;74178;52.136;5.424;2024-02-15T08:41:52;12.35;94.50
84090;SHT35;74178;52.136;5.424;2024-02-15T08:44:23;12.35;94.50
84090;SHT35;74178;52.136;5.424;2024-02-15T08:46:53;12.35;94.46
84090;SHT35;74178;52.136;5.424;2024-02-15T08:49:25;12.35;94.63
84090;SHT35;74178;52.136;5.424;2024-02-15T08:51:56;12.36;94.50
84090;SHT35;74178;52.136;5.424;2024-02-15T08:54:27;12.36;94.49
84090;SHT35;74178;52.136;5.424;2024-02-15T08:56:58;12.37;94.46
84090;SHT35;74178;52.136;5.424;2024-02-15T08:59:30;12.38;94.33
84090;SHT35;74178;52.136;5.424;2024-02-15T09:02:00;12.40;94.69
84090;SHT35;74178;52.136;5.424;2024-02-15T09:04:31;12.42;94.72
84090;SHT35;74178;52.136;5.424;2024-02-15T09:07:02;12.44;94.58
84090;SHT35;74178;52.136;5.424;2024-02-15T09:09:33;12.47;94.49
84090;SHT35;74178;52.136;5.424;2024-02-15T09:12:05;12.51;94.28
84090;SHT35;74178;52.136;5.424;2024-02-15T09:14:36;12.52;94.21
84090;SHT35;74178;52.136;5.424;2024-02-15T09:17:07;12.53;94.32
84090;SHT35;74178;52.136;5.424;2024-02-15T09:19:37;12.54;94.17
84090;SHT35;74178;52.136;5.424;2024-02-15T09:22:08;12.57;94.27
84090;SHT35;74178;52.136;5.424;2024-02-15T09:24:38;12.59;94.04
84090;SHT35;74178;52.136;5.424;2024-02-15T09:27:09;12.62;94.09
84090;SHT35;74178;52.136;5.424;2024-02-15T09:29:41;12.65;93.79
84090;SHT35;74178;52.136;5.424;2024-02-15T09:32:12;12.68;93.53
84090;SHT35;74178;52.136;5.424;2024-02-15T09:34:43;12.71;93.88
84090;SHT35;74178;52.136;5.424;2024-02-15T09:37:14;12.73;93.42
84090;SHT35;74178;52.136;5.424;2024-02-15T09:39:44;12.75;93.90
84090;SHT35;74178;52.136;5.424;2024-02-15T09:42:15;12.79;93.80
84090;SHT35;74178;52.136;5.424;2024-02-15T09:44:46;12.81;93.16
84090;SHT35;74178;52.136;5.424;2024-02-15T09:47:18;12.84;93.25
84090;SHT35;74178;52.136;5.424;2024-02-15T09:49:49;12.87;92.84
84090;SHT35;74178;52.136;5.424;2024-02-15T09:52:20;12.89;92.77
84090;SHT35;74178;52.136;5.424;2024-02-15T09:54:51;12.91;92.41
84090;SHT35;74178;52.136;5.424;2024-02-15T09:57:24;12.93;92.39
84090;SHT35;74178;52.136;5.424;2024-02-15T09:59:57;12.94;92.61
84090;SHT35;74178;52.136;5.424;2024-02-15T10:02:32;12.96;92.50
84090;SHT35;74178;52.136;5.424;2024-02-15T10:05:05;12.97;92.60
84090;SHT35;74178;52.136;5.424;2024-02-15T10:07:35;12.99;92.27
84090;SHT35;74178;52.136;5.424;2024-02-15T10:10:19;13.00;92.61
84090;SHT35;74178;52.136;5.424;2024-02-15T10:12:52;13.02;92.10
84090;SHT35;74178;52.136;5.424;2024-02-15T10:15:35;13.03;92.21
84090;SHT35;74178;52.136;5.424;2024-02-15T10:18:08;13.04;92.23
84090;SHT35;74178;52.136;5.424;2024-02-15T10:20:42;13.07;92.05
84090;SHT35;74178;52.136;5.424;2024-02-15T10:23:15;13.09;92.23
84090;SHT35;74178;52.136;5.424;2024-02-15T10:25:47;13.13;92.42
84090;SHT35;74178;52.136;5.424;2024-02-15T10:28:22;13.17;91.93
84090;SHT35;74178;52.136;5.424;2024-02-15T10:30:53;13.22;92.35
84090;SHT35;74178;52.136;5.424;2024-02-15T10:33:28;13.26;92.22
84090;SHT35;74178;52.136;5.424;2024-02-15T10:36:07;13.31;91.31
84090;SHT35;74178;52.136;5.424;2024-02-15T10:38:38;13.33;91.76
84090;SHT35;74178;52.136;5.424;2024-02-15T10:41:08;13.38;91.62
84090;SHT35;74178;52.136;5.424;2024-02-15T10:43:41;13.41;90.58
84090;SHT35;74178;52.136;5.424;2024-02-15T10:46:16;13.46;91.77
84090;SHT35;74178;52.136;5.424;2024-02-15T10:48:46;13.53;91.28
84090;SHT35;74178;52.136;5.424;2024-02-15T10:51:18;13.60;91.14
84090;SHT35;74178;52.136;5.424;2024-02-15T10:53:58;13.66;90.28
84090;SHT35;74178;52.136;5.424;2024-02-15T10:56:37;13.72;90.68
84090;SHT35;74178;52.136;5.424;2024-02-15T10:59:18;13.78;89.79
84090;SHT35;74178;52.136;5.424;2024-02-15T11:01:50;13.82;90.26
84090;SHT35;74178;52.136;5.424;2024-02-15T11:04:27;13.87;90.06
84090;SHT35;74178;52.136;5.424;2024-02-15T11:07:04;13.94;90.29
84090;SHT35;74178;52.136;5.424;2024-02-15T11:09:35;14.00;89.86
84090;SHT35;74178;52.136;5.424;2024-02-15T11:12:06;14.05;89.25
84090;SHT35;74178;52.136;5.424;2024-02-15T11:14:37;14.10;89.58
84090;SHT35;74178;52.136;5.424;2024-02-15T11:17:07;14.16;89.30
84090;SHT35;74178;52.136;5.424;2024-02-15T11:22:10;14.25;88.54
84090;SHT35;74178;52.136;5.424;2024-02-15T11:24:53;14.28;89.04
84090;SHT35;74178;52.136;5.424;2024-02-15T11:27:28;14.30;88.33
84090;SHT35;74178;52.136;5.424;2024-02-15T11:30:00;14.32;88.40
84090;SHT35;74178;52.136;5.424;2024-02-15T11:37:50;14.34;88.74
84090;SHT35;74178;52.136;5.424;2024-02-15T11:40:25;14.35;88.38
84090;SHT35;74178;52.136;5.424;2024-02-15T11:43:01;14.37;88.15
84090;SHT35;74178;52.136;5.424;2024-02-15T11:45:33;14.39;88.87
84090;SHT35;74178;52.136;5.424;2024-02-15T11:48:12;14.40;88.11
84090;SHT35;74178;52.136;5.424;2024-02-15T11:50:43;14.40;88.27
84090;SHT35;74178;52.136;5.424;2024-02-15T11:53:14;14.41;88.34
84090;SHT35;74178;52.136;5.424;2024-02-15T11:55:45;14.43;88.72
84090;SHT35;74178;52.136;5.424;2024-02-15T11:58:17;14.46;88.32
84090;SHT35;74178;52.136;5.424;2024-02-15T12:01:01;14.49;88.39
84090;SHT35;74178;52.136;5.424;2024-02-15T12:03:54;14.52;88.00
84090;SHT35;74178;52.136;5.424;2024-02-15T12:06:43;14.52;87.64
84090;SHT35;74178;52.136;5.424;2024-02-15T12:09:32;14.50;88.10
84090;SHT35;74178;52.136;5.424;2024-02-15T12:12:22;14.48;88.37
84090;SHT35;74178;52.136;5.424;2024-02-15T12:15:11;14.47;87.57
84090;SHT35;74178;52.136;5.424;2024-02-15T12:18:16;14.48;88.61
84090;SHT35;74178;52.136;5.424;2024-02-15T12:21:07;14.52;88.14
84090;SHT35;74178;52.136;5.424;2024-02-15T12:23:40;14.54;88.19
84090;SHT35;74178;52.136;5.424;2024-02-15T12:26:10;14.59;88.48
84090;SHT35;74178;52.136;5.424;2024-02-15T12:28:43;14.64;88.30
84090;SHT35;74178;52.136;5.424;2024-02-15T12:31:15;14.69;88.08
84090;SHT35;74178;52.136;5.424;2024-02-15T12:33:46;14.74;87.56
84090;SHT35;74178;52.136;5.424;2024-02-15T12:36:20;14.79;87.44
84090;SHT35;74178;52.136;5.424;2024-02-15T12:39:02;14.84;87.91
84090;SHT35;74178;52.136;5.424;2024-02-15T12:41:48;14.90;87.01
84090;SHT35;74178;52.136;5.424;2024-02-15T12:44:20;14.96;87.82
84090;SHT35;74178;52.136;5.424;2024-02-15T12:46:54;15.03;87.57
84090;SHT35;74178;52.136;5.424;2024-02-15T12:52:34;15.20;86.73
84090;SHT35;74178;52.136;5.424;2024-02-15T12:57:47;15.39;86.60
84090;SHT35;74178;52.136;5.424;2024-02-15T13:00:28;15.52;87.05
84090;SHT35;74178;52.136;5.424;2024-02-15T13:03:01;15.66;85.01
84090;SHT35;74178;52.136;5.424;2024-02-15T13:05:33;15.76;85.29
84090;SHT35;74178;52.136;5.424;2024-02-15T13:08:04;15.85;84.74
84090;SHT35;74178;52.136;5.424;2024-02-15T13:10:38;15.93;83.37
84090;SHT35;74178;52.136;5.424;2024-02-15T13:13:09;15.97;82.76
84090;SHT35;74178;52.136;5.424;2024-02-15T13:15:39;16.00;82.48
84090;SHT35;74178;52.136;5.424;2024-02-15T13:18:10;16.02;82.66
84090;SHT35;74178;52.136;5.424;2024-02-15T13:20:43;16.04;82.75
84090;SHT35;74178;52.136;5.424;2024-02-15T13:23:13;16.05;82.56
84090;SHT35;74178;52.136;5.424;2024-02-15T13:25:49;16.08;81.99
84090;SHT35;74178;52.136;5.424;2024-02-15T13:28:21;16.11;81.97
84090;SHT35;74178;52.136;5.424;2024-02-15T13:30:52;16.16;81.82
84090;SHT35;74178;52.136;5.424;2024-02-15T13:33:25;16.22;81.39
84090;SHT35;74178;52.136;5.424;2024-02-15T13:35:58;16.29;80.76
84090;SHT35;74178;52.136;5.424;2024-02-15T13:38:28;16.33;80.39
84090;SHT35;74178;52.136;5.424;2024-02-15T13:40:59;16.37;80.17
84090;SHT35;74178;52.136;5.424;2024-02-15T13:43:32;16.40;80.59
84090;SHT35;74178;52.136;5.424;2024-02-15T13:46:03;16.42;81.21
84090;SHT35;74178;52.136;5.424;2024-02-15T13:48:33;16.42;79.47
84090;SHT35;74178;52.136;5.424;2024-02-15T13:51:05;16.41;78.88
84090;SHT35;74178;52.136;5.424;2024-02-15T13:53:38;16.40;79.38
84090;SHT35;74178;52.136;5.424;2024-02-15T13:56:09;16.38;78.29
84090;SHT35;74178;52.136;5.424;2024-02-15T13:58:39;16.36;79.56
84090;SHT35;74178;52.136;5.424;2024-02-15T14:01:10;16.34;78.31
84090;SHT35;74178;52.136;5.424;2024-02-15T14:03:43;16.33;79.42
84090;SHT35;74178;52.136;5.424;2024-02-15T14:06:15;16.32;78.97
84090;SHT35;74178;52.136;5.424;2024-02-15T14:08:48;16.32;78.69
84090;SHT35;74178;52.136;5.424;2024-02-15T14:11:19;16.32;78.86
84090;SHT35;74178;52.136;5.424;2024-02-15T14:13:50;16.31;78.21
84090;SHT35;74178;52.136;5.424;2024-02-15T14:16:27;16.30;79.63
84090;SHT35;74178;52.136;5.424;2024-02-15T14:19:00;16.32;80.03
84090;SHT35;74178;52.136;5.424;2024-02-15T14:21:33;16.34;79.38
84090;SHT35;74178;52.136;5.424;2024-02-15T14:24:07;16.35;77.99
84090;SHT35;74178;52.136;5.424;2024-02-15T14:26:38;16.34;76.85
84090;SHT35;74178;52.136;5.424;2024-02-15T14:29:09;16.32;78.12
84090;SHT35;74178;52.136;5.424;2024-02-15T14:31:41;16.30;78.84
84090;SHT35;74178;52.136;5.424;2024-02-15T14:34:30;16.26;77.06
84090;SHT35;74178;52.136;5.424;2024-02-15T14:37:00;16.21;77.97
84090;SHT35;74178;52.136;5.424;2024-02-15T14:39:34;16.16;79.06
84090;SHT35;74178;52.136;5.424;2024-02-15T14:42:05;16.12;79.45
84090;SHT35;74178;52.136;5.424;2024-02-15T14:44:38;16.08;78.08
84090;SHT35;74178;52.136;5.424;2024-02-15T14:47:09;16.06;79.33
84090;SHT35;74178;52.136;5.424;2024-02-15T14:49:40;16.04;78.44
84090;SHT35;74178;52.136;5.424;2024-02-15T14:52:11;16.03;78.64
84090;SHT35;74178;52.136;5.424;2024-02-15T14:54:43;16.02;79.47
84090;SHT35;74178;52.136;5.424;2024-02-15T14:57:13;16.01;79.25
84090;SHT35;74178;52.136;5.424;2024-02-15T14:59:46;16.02;78.69
84090;SHT35;74178;52.136;5.424;2024-02-15T15:02:17;16.01;78.81
84090;SHT35;74178;52.136;5.424;2024-02-15T15:04:47;16.01;78.01
84090;SHT35;74178;52.136;5.424;2024-02-15T15:07:46;16.01;78.86
84090;SHT35;74178;52.136;5.424;2024-02-15T15:10:35;16.00;78.65
84090;SHT35;74178;52.136;5.424;2024-02-15T15:13:24;15.98;79.29
84090;SHT35;74178;52.136;5.424;2024-02-15T15:15:55;15.97;78.82
84090;SHT35;74178;52.136;5.424;2024-02-15T15:18:26;15.96;79.05
84090;SHT35;74178;52.136;5.424;2024-02-15T15:20:57;15.95;79.11
84090;SHT35;74178;52.136;5.424;2024-02-15T15:23:28;15.96;80.04
84090;SHT35;74178;52.136;5.424;2024-02-15T15:26:03;15.95;79.51
84090;SHT35;74178;52.136;5.424;2024-02-15T15:28:33;15.94;78.51
84090;SHT35;74178;52.136;5.424;2024-02-15T15:31:05;15.94;80.01
84090;SHT35;74178;52.136;5.424;2024-02-15T15:33:36;15.94;78.92
84090;SHT35;74178;52.136;5.424;2024-02-15T15:36:07;15.93;78.85
84090;SHT35;74178;52.136;5.424;2024-02-15T15:38:40;15.93;78.69
84090;SHT35;74178;52.136;5.424;2024-02-15T15:41:11;15.93;77.96
84090;SHT35;74178;52.136;5.424;2024-02-15T15:43:42;15.91;78.41
84090;SHT35;74178;52.136;5.424;2024-02-15T15:46:14;15.90;79.29
84090;SHT35;74178;52.136;5.424;2024-02-15T15:48:45;15.87;79.72
84090;SHT35;74178;52.136;5.424;2024-02-15T15:51:15;15.86;79.76
84090;SHT35;74178;52.136;5.424;2024-02-15T15:53:46;15.84;78.91
84090;SHT35;74178;52.136;5.424;2024-02-15T15:56:18;15.81;78.31
84090;SHT35;74178;52.136;5.424;2024-02-15T15:58:49;15.77;78.32
84090;SHT35;74178;52.136;5.424;2024-02-15T16:01:22;15.73;79.23
84090;SHT35;74178;52.136;5.424;2024-02-15T16:03:53;15.69;78.49
84090;SHT35;74178;52.136;5.424;2024-02-15T16:06:24;15.64;79.67
84090;SHT35;74178;52.136;5.424;2024-02-15T16:08:54;15.61;79.75
84090;SHT35;74178;52.136;5.424;2024-02-15T16:11:25;15.58;78.98
84090;SHT35;74178;52.136;5.424;2024-02-15T16:13:55;15.55;80.52
84090;SHT35;74178;52.136;5.424;2024-02-15T16:16:25;15.51;79.23